Time;durP1;ratioP1;P1;durP2;ratioP2;P2;SDS_P1;SDS_P2;PMS_P1;PMS_P2;Temp;Humidity;BMP_temperature;BMP_pressure;BME280_temperature;BME280_humidity;BME280_pressure;Samples;Min_cycle;Max_cycle;Signal;HPM_P1;HPM_P2
2023/04/21 16:41:15;;;;;;;2.20;1.98;;;;;;;;;;5045400;23;20142;-83
2023/04/21 16:43:42;;;;;;;2.60;2.35;;;;;;;;;;4927479;29;20036;-87
2023/04/21 16:46:07;;;;;;;5.57;3.90;;;;;;;;;;4937026;29;20467;-86
2023/04/21 16:48:32;;;;;;;3.30;2.80;;;;;;;;;;4937030;29;20060;-86
2023/04/21 16:50:58;;;;;;;2.92;2.70;;;;;;;;;;4937227;29;20079;-86
2023/04/21 16:53:25;;;;;;;2.58;2.38;;;;;;;;;;4936765;29;20048;-84
2023/04/21 16:55:51;;;;;;;3.72;2.25;;;;;;;;;;4919844;29;20554;-87
2023/04/21 16:58:16;;;;;;;2.80;2.60;;;;;;;;;;4936807;29;20028;-84
2023/04/21 17:00:41;;;;;;;3.80;3.40;;;;;;;;;;4919745;29;20442;-87
2023/04/21 17:03:07;;;;;;;5.13;4.72;;;;;;;;;;4938071;29;20055;-83
2023/04/21 17:05:32;;;;;;;4.30;4.00;;;;;;;;;;4920612;29;20462;-87
2023/04/21 17:07:58;;;;;;;2.95;2.75;;;;;;;;;;4938247;29;20386;-87
2023/04/21 17:10:25;;;;;;;2.60;2.40;;;;;;;;;;4936612;29;20160;-87
2023/04/21 17:12:51;;;;;;;2.38;2.17;;;;;;;;;;4936557;29;20390;-87
2023/04/21 17:15:16;;;;;;;2.60;2.40;;;;;;;;;;4938685;29;20121;-87
2023/04/21 17:17:43;;;;;;;2.75;2.22;;;;;;;;;;4935822;29;20032;-87
2023/04/21 17:20:11;;;;;;;2.75;2.30;;;;;;;;;;4934458;29;20024;-87
2023/04/21 17:22:37;;;;;;;2.03;1.90;;;;;;;;;;4935239;29;20016;-87
2023/04/21 17:25:04;;;;;;;2.70;2.50;;;;;;;;;;4936764;29;20035;-86
2023/04/21 17:27:30;;;;;;;2.20;2.10;;;;;;;;;;4936165;29;20023;-86
2023/04/21 17:29:56;;;;;;;2.95;2.75;;;;;;;;;;4919325;29;20042;-86
2023/04/21 17:32:21;;;;;;;3.58;3.22;;;;;;;;;;4919317;29;20031;-84
2023/04/21 17:34:47;;;;;;;3.53;3.22;;;;;;;;;;4936640;29;20036;-85
2023/04/21 17:37:13;;;;;;;4.50;4.10;;;;;;;;;;4936371;29;20487;-85
2023/04/21 17:39:38;;;;;;;3.50;3.10;;;;;;;;;;4918767;29;20544;-85
2023/04/21 17:42:04;;;;;;;3.00;2.80;;;;;;;;;;4943913;28;20042;-86
2023/04/21 17:44:30;;;;;;;2.95;2.65;;;;;;;;;;4925313;29;20024;-86
2023/04/21 17:46:56;;;;;;;5.82;5.25;;;;;;;;;;4900489;29;20460;-86
2023/04/21 17:49:23;;;;;;;8.50;7.70;;;;;;;;;;4916864;29;20036;-86
2023/04/21 17:51:49;;;;;;;6.53;5.60;;;;;;;;;;4917216;29;20495;-85
2023/04/21 17:54:15;;;;;;;4.50;4.10;;;;;;;;;;4925781;29;20032;-84
2023/04/21 17:56:41;;;;;;;4.35;3.13;;;;;;;;;;4947245;29;20424;-85
2023/04/21 17:59:06;;;;;;;3.90;2.65;;;;;;;;;;4939246;29;20110;-85
2023/04/21 18:01:32;;;;;;;2.80;2.20;;;;;;;;;;4936021;29;20089;-86
2023/04/21 18:03:58;;;;;;;2.40;2.17;;;;;;;;;;4936147;29;20082;-85
2023/04/21 18:06:23;;;;;;;2.22;2.13;;;;;;;;;;4936022;29;20050;-85
2023/04/21 18:08:49;;;;;;;2.40;2.20;;;;;;;;;;4935982;29;20122;-85
2023/04/21 18:11:15;;;;;;;2.38;2.17;;;;;;;;;;4918958;29;20565;-85
2023/04/21 18:13:40;;;;;;;2.30;2.10;;;;;;;;;;4935927;29;20023;-84
2023/04/21 18:16:06;;;;;;;2.30;2.10;;;;;;;;;;4936224;29;20405;-86
2023/04/21 18:18:31;;;;;;;2.60;2.40;;;;;;;;;;4936152;29;20027;-86
2023/04/21 18:20:58;;;;;;;2.85;2.65;;;;;;;;;;4936026;29;20028;-85
2023/04/21 18:23:24;;;;;;;2.72;2.53;;;;;;;;;;4936000;29;20087;-88
2023/04/21 18:25:49;;;;;;;2.70;2.50;;;;;;;;;;4935851;29;20107;-86
2023/04/21 18:28:15;;;;;;;5.57;5.00;;;;;;;;;;4918979;29;20059;-86
2023/04/21 18:30:41;;;;;;;5.35;4.85;;;;;;;;;;4919015;29;20043;-85
2023/04/21 18:33:08;;;;;;;7.38;6.78;;;;;;;;;;4935917;29;20035;-85
2023/04/21 18:35:33;;;;;;;12.98;11.88;;;;;;;;;;4918946;29;20040;-86
2023/04/21 18:37:58;;;;;;;8.57;7.97;;;;;;;;;;4944195;29;20116;-83
2023/04/21 18:40:24;;;;;;;5.63;5.13;;;;;;;;;;4954922;29;20051;-89
2023/04/21 18:42:49;;;;;;;3.97;3.40;;;;;;;;;;4955121;28;20039;-90
2023/04/21 18:45:15;;;;;;;3.70;3.40;;;;;;;;;;4937743;29;20020;-88
2023/04/21 18:47:40;;;;;;;5.00;3.45;;;;;;;;;;4955211;29;20069;-87
2023/04/21 18:50:09;;;;;;;5.47;4.00;;;;;;;;;;4937754;29;20142;-89
2023/04/21 18:52:34;;;;;;;2.85;2.47;;;;;;;;;;4936921;29;20039;-85
2023/04/21 18:55:00;;;;;;;3.20;2.90;;;;;;;;;;4936651;29;20031;-87
2023/04/21 18:57:26;;;;;;;2.67;2.40;;;;;;;;;;4953969;29;20027;-84
2023/04/21 18:59:51;;;;;;;2.60;2.40;;;;;;;;;;4938340;28;20035;-89
2023/04/21 19:02:17;;;;;;;2.70;2.50;;;;;;;;;;4941225;29;20423;-83
2023/04/21 19:04:42;;;;;;;3.05;2.40;;;;;;;;;;4945083;29;20027;-92
2023/04/21 19:07:10;;;;;;;2.53;2.20;;;;;;;;;;4922190;29;20031;-87
2023/04/21 19:09:36;;;;;;;2.40;2.20;;;;;;;;;;4938979;29;20027;-86
2023/04/21 19:12:02;;;;;;;2.50;2.30;;;;;;;;;;4939009;29;20035;-86
2023/04/21 19:14:28;;;;;;;2.15;2.03;;;;;;;;;;4928580;29;20474;-87
2023/04/21 19:16:54;;;;;;;3.28;2.97;;;;;;;;;;4943929;29;20110;-88
2023/04/21 19:19:21;;;;;;;3.50;3.20;;;;;;;;;;4939381;29;20034;-89
2023/04/21 19:21:47;;;;;;;4.50;3.13;;;;;;;;;;4927617;29;20418;-86
2023/04/21 19:24:12;;;;;;;3.45;3.15;;;;;;;;;;4948381;29;20557;-88
2023/04/21 19:26:38;;;;;;;4.38;3.30;;;;;;;;;;4948478;29;20028;-85
2023/04/21 19:29:03;;;;;;;4.10;3.10;;;;;;;;;;4930836;29;20031;-84
2023/04/21 19:31:29;;;;;;;3.13;2.92;;;;;;;;;;4938183;29;20020;-83
2023/04/21 19:33:54;;;;;;;3.45;3.25;;;;;;;;;;4948783;29;20031;-86
2023/04/21 19:36:20;;;;;;;3.40;2.90;;;;;;;;;;4946687;29;20379;-90
2023/04/21 19:38:46;;;;;;;3.33;3.03;;;;;;;;;;4948144;29;20109;-82
2023/04/21 19:41:12;;;;;;;3.50;3.20;;;;;;;;;;4938032;29;20126;-85
2023/04/21 19:43:37;;;;;;;2.80;2.60;;;;;;;;;;4948566;28;20031;-86
2023/04/21 19:46:03;;;;;;;2.53;2.33;;;;;;;;;;4938116;29;20015;-89
2023/04/21 19:48:28;;;;;;;3.13;2.60;;;;;;;;;;4947617;29;20024;-85
2023/04/21 19:50:54;;;;;;;2.65;2.45;;;;;;;;;;4946864;29;20046;-81
2023/04/21 19:53:19;;;;;;;2.67;2.47;;;;;;;;;;4938028;29;20442;-84
2023/04/21 19:55:45;;;;;;;2.47;2.25;;;;;;;;;;4938278;29;20042;-87
2023/04/21 19:58:11;;;;;;;2.63;2.30;;;;;;;;;;4938587;29;20040;-87
2023/04/21 20:00:36;;;;;;;2.53;2.33;;;;;;;;;;4938498;29;20444;-85
2023/04/21 20:03:05;;;;;;;2.97;2.35;;;;;;;;;;4938149;29;20027;-90
2023/04/21 20:05:31;;;;;;;2.47;2.28;;;;;;;;;;4938452;29;20102;-86
2023/04/21 20:07:58;;;;;;;2.38;2.17;;;;;;;;;;4938075;29;20368;-82
2023/04/21 20:10:24;;;;;;;2.50;2.30;;;;;;;;;;4938102;29;20032;-84
2023/04/21 20:12:50;;;;;;;2.00;1.90;;;;;;;;;;4937627;29;20098;-88
2023/04/21 20:15:15;;;;;;;2.80;2.60;;;;;;;;;;4938290;29;20463;-90
2023/04/21 20:17:41;;;;;;;2.22;2.10;;;;;;;;;;4921471;29;20027;-88
2023/04/21 20:20:08;;;;;;;3.08;2.20;;;;;;;;;;4938245;29;20387;-87
2023/04/21 20:22:34;;;;;;;2.25;2.05;;;;;;;;;;4937923;29;20023;-83
2023/04/21 20:24:59;;;;;;;2.40;2.20;;;;;;;;;;4937663;29;20028;-85
2023/04/21 20:27:25;;;;;;;2.42;2.22;;;;;;;;;;4937601;29;20111;-84
2023/04/21 20:29:51;;;;;;;2.00;1.90;;;;;;;;;;4937732;29;20115;-88
2023/04/21 20:32:16;;;;;;;2.88;2.60;;;;;;;;;;4937597;29;20390;-88
2023/04/21 20:34:42;;;;;;;2.33;2.13;;;;;;;;;;4920676;29;20392;-87
2023/04/21 20:37:09;;;;;;;2.17;2.00;;;;;;;;;;4937597;29;20095;-87
2023/04/21 20:39:36;;;;;;;2.80;2.60;;;;;;;;;;4937261;29;20427;-87
2023/04/21 20:42:03;;;;;;;2.38;2.17;;;;;;;;;;4937382;29;20032;-84
2023/04/21 20:44:30;;;;;;;2.53;2.33;;;;;;;;;;4937409;29;20100;-88
2023/04/21 20:46:59;;;;;;;3.95;2.75;;;;;;;;;;4937312;29;20095;-86
2023/04/21 20:49:25;;;;;;;2.65;2.38;;;;;;;;;;4920150;29;20031;-88
2023/04/21 20:51:58;;;;;;;2.50;2.30;;;;;;;;;;4937374;29;20395;-84
2023/04/21 20:54:23;;;;;;;2.90;2.70;;;;;;;;;;4937308;29;20028;-84
2023/04/21 20:56:48;;;;;;;2.40;2.05;;;;;;;;;;4937206;29;20155;-84
2023/04/21 20:59:14;;;;;;;2.63;2.42;;;;;;;;;;4937408;29;20490;-84
2023/04/21 21:01:40;;;;;;;2.50;2.30;;;;;;;;;;4937214;29;20132;-89
2023/04/21 21:04:06;;;;;;;2.83;2.63;;;;;;;;;;4937006;29;20434;-84
2023/04/21 21:06:31;;;;;;;2.50;2.30;;;;;;;;;;4937257;29;20032;-89
2023/04/21 21:08:58;;;;;;;2.75;2.30;;;;;;;;;;4936892;29;20156;-83
2023/04/21 21:11:23;;;;;;;3.20;2.90;;;;;;;;;;4937079;29;20042;-83
2023/04/21 21:13:49;;;;;;;3.15;2.85;;;;;;;;;;4936808;29;20023;-83
2023/04/21 21:16:15;;;;;;;3.05;2.75;;;;;;;;;;4919673;29;20471;-83
2023/04/21 21:18:41;;;;;;;2.50;2.30;;;;;;;;;;4937081;29;20036;-87
2023/04/21 21:21:07;;;;;;;3.20;2.90;;;;;;;;;;4936955;29;20042;-83
2023/04/21 21:23:32;;;;;;;2.97;2.67;;;;;;;;;;4935862;29;20111;-84
2023/04/21 21:25:58;;;;;;;3.90;2.90;;;;;;;;;;4936887;29;20027;-83
2023/04/21 21:28:24;;;;;;;2.88;2.67;;;;;;;;;;4919784;29;20056;-83
2023/04/21 21:30:50;;;;;;;4.13;2.88;;;;;;;;;;4919706;29;20592;-84
2023/04/21 21:33:15;;;;;;;3.20;2.90;;;;;;;;;;4936613;29;20039;-85
2023/04/21 21:35:41;;;;;;;3.15;2.85;;;;;;;;;;4936678;29;20032;-90
2023/04/21 21:38:07;;;;;;;3.20;2.88;;;;;;;;;;4936632;29;20475;-84
2023/04/21 21:40:33;;;;;;;3.45;3.13;;;;;;;;;;4919399;29;20055;-84
2023/04/21 21:42:58;;;;;;;3.47;2.80;;;;;;;;;;4936383;29;20043;-89
2023/04/21 21:45:24;;;;;;;2.85;2.53;;;;;;;;;;4919490;29;20035;-84
2023/04/21 21:47:49;;;;;;;3.22;2.92;;;;;;;;;;4936583;29;20043;-88
2023/04/21 21:50:15;;;;;;;2.92;2.72;;;;;;;;;;4936367;29;20119;-84
2023/04/21 21:52:40;;;;;;;2.65;2.45;;;;;;;;;;4936208;29;20056;-83
2023/04/21 21:55:06;;;;;;;2.85;2.60;;;;;;;;;;4936390;29;20058;-84
2023/04/21 21:57:32;;;;;;;2.70;2.50;;;;;;;;;;4936431;29;20036;-89
2023/04/21 21:59:59;;;;;;;2.50;2.30;;;;;;;;;;4936434;29;20106;-89
2023/04/21 22:02:25;;;;;;;3.90;2.40;;;;;;;;;;4936191;29;20028;-83
2023/04/21 22:04:51;;;;;;;2.90;2.50;;;;;;;;;;4936641;29;20020;-88
2023/04/21 22:07:18;;;;;;;2.50;2.30;;;;;;;;;;4936513;29;20034;-84
2023/04/21 22:09:43;;;;;;;2.80;2.60;;;;;;;;;;4936096;29;20123;-90
2023/04/21 22:12:09;;;;;;;2.60;2.40;;;;;;;;;;4936544;29;20519;-84
2023/04/21 22:14:35;;;;;;;3.03;2.80;;;;;;;;;;4936308;29;20035;-89
2023/04/21 22:17:01;;;;;;;2.60;2.40;;;;;;;;;;4936165;29;20028;-88
2023/04/21 22:19:28;;;;;;;3.83;3.45;;;;;;;;;;4918967;29;20043;-83
2023/04/21 22:21:54;;;;;;;2.90;2.70;;;;;;;;;;4936047;29;20023;-89
2023/04/21 22:24:19;;;;;;;3.53;3.22;;;;;;;;;;4924842;29;20032;-87
2023/04/21 22:26:46;;;;;;;3.05;2.80;;;;;;;;;;4948022;29;20046;-85
2023/04/21 22:29:11;;;;;;;4.03;3.40;;;;;;;;;;4935965;29;20495;-87
2023/04/21 22:31:37;;;;;;;3.08;2.78;;;;;;;;;;4935956;29;20028;-88
